createdAt,value
2023-05-09T00:00:02.645Z,101143.25
2023-05-09T00:02:29.707Z,101135.19
2023-05-09T00:04:56.791Z,101143.72
2023-05-09T00:07:23.207Z,101142.28
2023-05-09T00:09:49.589Z,101128.66
2023-05-09T00:12:16.204Z,101129.75
2023-05-09T00:14:45.263Z,101118.03
2023-05-09T00:17:14.482Z,101109.97
2023-05-09T00:19:41.147Z,101119.09
2023-05-09T00:22:09.182Z,101111.25
2023-05-09T00:24:35.627Z,101111.75
2023-05-09T00:27:02.043Z,101111.75
2023-05-09T00:29:28.404Z,101101.72
2023-05-09T00:31:54.842Z,101104.75
2023-05-09T00:34:21.271Z,101104.13
2023-05-09T00:36:47.792Z,101101.63
2023-05-09T00:39:14.232Z,101095.44
2023-05-09T00:41:40.663Z,101108.25
2023-05-09T00:44:07.093Z,101102.69
2023-05-09T00:46:33.989Z,101081.59
2023-05-09T00:49:00.489Z,101090.53
2023-05-09T00:51:28.534Z,101086.66
2023-05-09T00:53:55.070Z,101081.72
2023-05-09T00:56:22.029Z,101082.31
2023-05-09T00:58:48.852Z,101080.16
2023-05-09T01:01:16.420Z,101075.81
2023-05-09T01:03:43.645Z,101073.63
2023-05-09T01:06:16.853Z,101078.69
2023-05-09T01:09:00.171Z,101070.75
2023-05-09T01:11:36.205Z,101068.81
2023-05-09T01:14:27.502Z,101068.81
2023-05-09T01:17:02.621Z,101060.00
2023-05-09T01:19:56.735Z,101064.47
2023-05-09T01:22:36.589Z,101059.53
2023-05-09T01:25:24.247Z,101060.63
2023-05-09T01:28:02.528Z,101050.38
2023-05-09T01:30:29.671Z,101052.28
2023-05-09T01:33:00.250Z,101049.25
2023-05-09T01:35:29.996Z,101060.34
2023-05-09T01:37:58.164Z,101043.72
2023-05-09T01:40:27.979Z,101041.81
2023-05-09T01:43:01.908Z,101048.44
2023-05-09T01:45:29.969Z,101043.97
2023-05-09T01:47:58.511Z,101045.66
2023-05-09T01:50:25.943Z,101045.66
2023-05-09T01:52:56.720Z,101047.38
2023-05-09T01:55:26.976Z,101044.38
2023-05-09T01:57:53.782Z,101041.34
2023-05-09T02:00:22.068Z,101038.31
2023-05-09T02:02:49.388Z,101035.31
2023-05-09T02:05:17.516Z,101034.84
2023-05-09T02:07:46.925Z,101037.59
2023-05-09T02:10:15.486Z,101037.59
2023-05-09T02:12:41.993Z,101033.50
2023-05-09T02:15:08.907Z,101034.34
2023-05-09T02:17:35.344Z,101034.34
2023-05-09T02:20:01.787Z,101028.78
2023-05-09T02:22:28.348Z,101026.59
2023-05-09T02:24:54.925Z,101028.28
2023-05-09T02:27:21.805Z,101031.06
2023-05-09T02:29:51.451Z,101031.69
2023-05-09T02:32:25.656Z,101035.91
2023-05-09T02:34:54.093Z,101030.13
2023-05-09T02:37:21.549Z,101032.41
2023-05-09T02:39:48.331Z,101035.75
2023-05-09T02:42:21.989Z,101034.19
2023-05-09T02:44:48.408Z,101029.84
2023-05-09T02:47:14.857Z,101019.31
2023-05-09T02:49:41.220Z,101022.72
2023-05-09T02:52:07.587Z,101015.22
2023-05-09T02:54:33.998Z,101013.28
2023-05-09T02:57:00.467Z,101013.28
2023-05-09T02:59:27.410Z,101003.84
2023-05-09T03:01:53.949Z,101006.63
2023-05-09T03:04:20.338Z,101002.78
2023-05-09T03:06:46.783Z,101003.41
2023-05-09T03:09:13.184Z,101002.53
2023-05-09T03:11:39.670Z,100995.06
2023-05-09T03:14:08.238Z,100994.22
2023-05-09T03:16:34.965Z,101002.53
2023-05-09T03:19:01.360Z,101000.84
2023-05-09T03:21:27.775Z,100996.13
2023-05-09T03:23:54.184Z,100993.59
2023-05-09T03:26:21.571Z,100992.75
2023-05-09T03:28:48.924Z,100992.75
2023-05-09T03:31:15.884Z,100990.22
2023-05-09T03:33:42.311Z,100982.75
2023-05-09T03:36:09.042Z,100987.19
2023-05-09T03:38:35.448Z,100986.38
2023-05-09T03:41:01.864Z,100992.75
2023-05-09T03:43:28.258Z,100981.41
2023-05-09T03:45:54.717Z,100981.41
2023-05-09T03:48:21.182Z,100975.63
2023-05-09T03:50:47.688Z,100970.06
2023-05-09T03:53:14.088Z,100971.72
2023-05-09T03:55:40.902Z,100976.44
2023-05-09T03:58:07.334Z,100968.38
2023-05-09T04:00:33.836Z,100962.81
2023-05-09T04:03:00.447Z,100967.28
2023-05-09T04:05:27.270Z,100966.19
2023-05-09T04:07:53.744Z,100958.47
2023-05-09T04:10:20.218Z,100965.69
2023-05-09T04:12:46.616Z,100967.38
2023-05-09T04:15:13.347Z,100954.56
2023-05-09T04:17:40.089Z,100954.56
2023-05-09T04:20:08.178Z,100961.25
2023-05-09T04:22:34.579Z,100949.00
2023-05-09T04:25:00.953Z,100936.25
2023-05-09T04:27:28.110Z,100940.69
2023-05-09T04:29:54.584Z,100939.03
2023-05-09T04:32:22.427Z,100942.66
2023-05-09T04:34:49.516Z,100937.91
2023-05-09T04:37:15.968Z,100939.59
2023-05-09T04:39:42.408Z,100932.47
2023-05-09T04:42:08.812Z,100935.59
2023-05-09T04:44:35.882Z,100930.88
2023-05-09T04:47:02.288Z,100928.69
2023-05-09T04:49:28.665Z,100935.94
2023-05-09T04:51:55.052Z,100932.06
2023-05-09T04:54:21.452Z,100927.34
2023-05-09T04:56:50.014Z,100927.09
2023-05-09T04:59:17.113Z,100921.53
2023-05-09T05:01:43.665Z,100917.94
2023-05-09T05:04:10.225Z,100919.59
2023-05-09T05:06:36.676Z,100925.78
2023-05-09T05:09:03.289Z,100919.94
2023-05-09T05:11:29.700Z,100926.13
2023-05-09T05:13:56.110Z,100921.13
2023-05-09T05:16:22.593Z,100922.84
2023-05-09T05:18:49.102Z,100917.63
2023-05-09T05:21:16.298Z,100909.88
2023-05-09T05:23:42.794Z,100917.97
2023-05-09T05:26:09.235Z,100908.28
2023-05-09T05:28:35.767Z,100910.06
2023-05-09T05:31:02.259Z,100910.97
2023-05-09T05:33:28.670Z,100907.69
2023-05-09T05:35:55.063Z,100908.88
2023-05-09T05:38:21.579Z,100904.50
2023-05-09T05:40:48.079Z,100907.41
2023-05-09T05:43:14.511Z,100906.91
2023-05-09T05:45:40.994Z,100905.81
2023-05-09T05:48:07.542Z,100907.75
2023-05-09T05:50:34.486Z,100903.38
2023-05-09T05:53:00.928Z,100897.53
2023-05-09T05:55:27.333Z,100888.63
2023-05-09T05:57:53.892Z,100889.81
2023-05-09T06:00:20.833Z,100897.63
2023-05-09T06:02:50.054Z,100897.97
2023-05-09T06:05:16.981Z,100892.50
2023-05-09T06:07:44.345Z,100885.34
2023-05-09T06:10:11.202Z,100883.44
2023-05-09T06:12:37.744Z,100879.63
2023-05-09T06:15:05.897Z,100881.66
2023-05-09T06:17:32.384Z,100881.47
2023-05-09T06:19:58.805Z,100869.34
2023-05-09T06:22:25.246Z,100869.38
2023-05-09T06:24:51.596Z,100855.56
2023-05-09T06:27:18.467Z,100859.59
2023-05-09T06:29:44.880Z,100860.59
2023-05-09T06:32:11.261Z,100862.41
2023-05-09T06:34:37.672Z,100862.53
2023-05-09T06:37:04.143Z,100858.63
2023-05-09T06:39:30.636Z,100877.25
2023-05-09T06:41:57.007Z,100866.75
2023-05-09T06:44:23.419Z,100858.66
2023-05-09T06:46:49.877Z,100864.13
2023-05-09T06:49:16.354Z,100858.22
2023-05-09T06:51:42.791Z,100857.19
2023-05-09T06:54:09.166Z,100850.31
2023-05-09T06:56:36.394Z,100844.03
2023-05-09T06:59:02.882Z,100843.75
2023-05-09T07:01:29.297Z,100836.88
2023-05-09T07:03:55.760Z,100831.91
2023-05-09T07:06:22.169Z,100820.84
2023-05-09T07:08:48.592Z,100820.59
2023-05-09T07:11:15.018Z,100806.44
2023-05-09T07:13:41.743Z,100807.03
2023-05-09T07:16:08.233Z,100806.25
2023-05-09T07:18:34.860Z,100803.78
2023-05-09T07:21:01.270Z,100795.13
2023-05-09T07:23:27.692Z,100792.94
2023-05-09T07:25:58.567Z,100782.09
2023-05-09T07:28:25.996Z,100781.59
2023-05-09T07:30:52.445Z,100784.16
2023-05-09T07:33:18.849Z,100778.28
2023-05-09T07:35:45.303Z,100771.69
2023-05-09T07:38:12.112Z,100773.88
2023-05-09T07:40:38.780Z,100765.56
2023-05-09T07:43:05.220Z,100772.03
2023-05-09T07:45:31.760Z,100771.78
2023-05-09T07:47:58.241Z,100776.28
2023-05-09T07:50:24.752Z,100758.19
2023-05-09T07:52:52.655Z,100752.34
2023-05-09T07:55:19.234Z,100746.00
2023-05-09T07:57:45.687Z,100755.78
2023-05-09T08:00:12.733Z,100749.13
2023-05-09T08:02:39.256Z,100739.69
2023-05-09T08:05:06.209Z,100743.59
2023-05-09T08:07:32.632Z,100736.41
2023-05-09T08:09:59.055Z,100735.28
2023-05-09T08:12:25.510Z,100725.53
2023-05-09T08:14:51.914Z,100723.56
2023-05-09T08:17:18.357Z,100716.31
2023-05-09T08:19:44.750Z,100714.34
2023-05-09T08:22:19.793Z,100709.91
2023-05-09T08:24:47.014Z,100707.09
2023-05-09T08:27:14.844Z,100705.16
2023-05-09T08:29:41.622Z,100696.22
2023-05-09T08:32:08.633Z,100693.16
2023-05-09T08:34:36.349Z,100689.50
2023-05-09T08:37:03.977Z,100690.03
2023-05-09T08:39:31.015Z,100690.56
2023-05-09T08:41:59.505Z,100679.63
2023-05-09T08:44:26.967Z,100679.88
2023-05-09T08:46:58.517Z,100682.09
2023-05-09T08:49:26.033Z,100673.41
2023-05-09T08:51:52.508Z,100674.84
2023-05-09T08:54:20.781Z,100666.47
2023-05-09T08:56:50.394Z,100657.47
2023-05-09T08:59:18.476Z,100659.16
2023-05-09T09:01:45.661Z,100670.38
2023-05-09T09:04:12.263Z,100663.09
2023-05-09T09:06:39.762Z,100650.19
2023-05-09T09:09:08.779Z,100650.47
2023-05-09T09:11:36.669Z,100648.22
2023-05-09T09:14:12.859Z,100642.56
2023-05-09T09:16:41.582Z,100652.34
2023-05-09T09:19:13.127Z,100638.63
2023-05-09T09:21:43.340Z,100640.56
2023-05-09T09:24:15.401Z,100634.97
2023-05-09T09:26:47.158Z,100647.00
2023-05-09T09:29:14.795Z,100636.66
2023-05-09T09:31:45.163Z,100625.97
2023-05-09T09:34:14.520Z,100614.75
2023-05-09T09:36:41.104Z,100610.81
2023-05-09T09:39:09.102Z,100607.16
2023-05-09T09:41:39.260Z,100600.91
2023-05-09T09:44:17.011Z,100594.88
2023-05-09T09:46:43.808Z,100603.19
2023-05-09T09:49:11.603Z,100578.56
2023-05-09T09:51:38.117Z,100585.38
2023-05-09T09:54:07.907Z,100587.00
2023-05-09T09:56:47.852Z,100585.13
2023-05-09T09:59:17.196Z,100577.25
2023-05-09T10:02:07.562Z,100569.16
2023-05-09T10:04:37.005Z,100569.06
2023-05-09T10:07:13.543Z,100565.66
2023-05-09T10:09:41.231Z,100561.41
2023-05-09T10:12:08.578Z,100558.44
2023-05-09T10:14:36.506Z,100554.16
2023-05-09T10:17:05.529Z,100557.75
2023-05-09T10:19:33.087Z,100553.94
2023-05-09T10:22:05.738Z,100554.16
2023-05-09T10:24:48.843Z,100546.25
2023-05-09T10:27:21.674Z,100546.13
2023-05-09T10:30:04.813Z,100527.06
2023-05-09T10:32:41.714Z,100531.69
2023-05-09T10:35:13.890Z,100515.72
2023-05-09T10:37:41.187Z,100506.63
2023-05-09T10:40:09.174Z,100505.38
2023-05-09T10:42:36.059Z,100508.63
2023-05-09T10:45:03.062Z,100498.94
2023-05-09T10:47:31.942Z,100504.63
2023-05-09T10:49:59.465Z,100500.34
2023-05-09T10:52:31.992Z,100502.06
2023-05-09T10:55:04.032Z,100497.28
2023-05-09T10:57:32.054Z,100490.78
2023-05-09T11:00:00.243Z,100487.88
2023-05-09T11:02:30.785Z,100475.06
2023-05-09T11:05:20.186Z,100470.50
2023-05-09T11:07:46.713Z,100462.78
2023-05-09T11:10:18.002Z,100455.41
2023-05-09T11:12:59.134Z,100450.03
2023-05-09T11:15:27.728Z,100446.38
2023-05-09T11:18:08.548Z,100437.56
2023-05-09T11:20:35.780Z,100437.88
2023-05-09T11:23:05.852Z,100435.56
2023-05-09T11:25:32.990Z,100443.88
2023-05-09T11:28:01.866Z,100431.19
2023-05-09T11:30:42.512Z,100426.38
2023-05-09T11:33:28.363Z,100419.69
2023-05-09T11:36:29.174Z,100411.78
2023-05-09T11:39:06.495Z,100413.38
2023-05-09T11:41:44.069Z,100403.19
2023-05-09T11:44:17.961Z,100403.97
2023-05-09T11:46:45.863Z,100397.75
2023-05-09T11:49:12.537Z,100396.84
2023-05-09T11:51:39.573Z,100395.34
2023-05-09T11:54:07.166Z,100387.66
2023-05-09T11:56:37.968Z,100385.69
2023-05-09T11:59:04.487Z,100386.50
2023-05-09T12:01:31.253Z,100379.88
2023-05-09T12:03:59.149Z,100371.06
2023-05-09T12:06:29.890Z,100377.97
2023-05-09T12:08:57.773Z,100363.59
2023-05-09T12:11:24.826Z,100360.69
2023-05-09T12:13:52.680Z,100360.06
2023-05-09T12:16:20.469Z,100350.94
2023-05-09T12:18:49.553Z,100353.13
2023-05-09T12:21:17.163Z,100348.47
2023-05-09T12:23:44.205Z,100351.28
2023-05-09T12:26:10.997Z,100341.38
2023-05-09T12:28:37.959Z,100333.34
2023-05-09T12:31:05.651Z,100340.88
2023-05-09T12:33:32.428Z,100332.41
2023-05-09T12:36:06.969Z,100327.22
2023-05-09T12:38:33.742Z,100319.97
2023-05-09T12:41:04.517Z,100325.59
2023-05-09T12:43:32.749Z,100307.88
2023-05-09T12:46:00.453Z,100304.09
2023-05-09T12:48:27.504Z,100299.03
2023-05-09T12:50:53.981Z,100291.50
2023-05-09T12:53:25.107Z,100289.69
2023-05-09T12:55:55.948Z,100286.94
2023-05-09T12:58:22.384Z,100285.84
2023-05-09T13:00:48.864Z,100288.09
2023-05-09T13:03:42.414Z,100283.38
2023-05-09T13:06:13.552Z,100299.50
2023-05-09T13:08:40.910Z,100271.16
2023-05-09T13:11:16.748Z,100268.50
2023-05-09T13:13:43.736Z,100267.84
2023-05-09T13:16:11.231Z,100267.06
2023-05-09T13:18:38.477Z,100258.31
2023-05-09T13:21:04.877Z,100258.25
2023-05-09T13:23:31.294Z,100251.59
2023-05-09T13:25:57.704Z,100251.94
2023-05-09T13:28:24.081Z,100247.16
2023-05-09T13:30:50.522Z,100244.16
2023-05-09T13:33:25.984Z,100243.84
2023-05-09T13:35:53.166Z,100235.09
2023-05-09T13:38:19.653Z,100240.63
2023-05-09T13:40:46.388Z,100228.97
2023-05-09T13:43:12.823Z,100225.13
2023-05-09T13:45:39.262Z,100237.22
2023-05-09T13:48:05.989Z,100231.06
2023-05-09T13:50:32.476Z,100229.41
2023-05-09T13:52:59.013Z,100229.59
2023-05-09T13:55:26.914Z,100220.75
2023-05-09T13:57:53.453Z,100216.91
2023-05-09T14:00:21.385Z,100216.56
2023-05-09T14:02:48.328Z,100205.94
2023-05-09T14:05:14.873Z,100203.13
2023-05-09T14:07:41.347Z,100204.59
2023-05-09T14:10:11.922Z,100208.31
2023-05-09T14:12:39.645Z,100212.28
2023-05-09T14:15:07.767Z,100207.88
2023-05-09T14:17:34.440Z,100203.50
2023-05-09T14:20:01.115Z,100197.88
2023-05-09T14:22:28.186Z,100205.72
2023-05-09T14:24:56.467Z,100197.09
2023-05-09T14:27:22.985Z,100202.16
2023-05-09T14:29:49.447Z,100200.06
2023-05-09T14:32:16.091Z,100198.53
2023-05-09T14:34:42.575Z,100194.44
2023-05-09T14:37:13.610Z,100201.78
2023-05-09T14:39:44.954Z,100183.75
2023-05-09T14:42:11.702Z,100184.22
2023-05-09T14:44:38.792Z,100178.53
2023-05-09T14:47:05.421Z,100179.53
2023-05-09T14:49:32.476Z,100175.97
2023-05-09T14:51:59.004Z,100175.22
2023-05-09T14:54:25.578Z,100170.00
2023-05-09T14:56:51.945Z,100161.38
2023-05-09T14:59:18.522Z,100159.69
2023-05-09T15:01:46.178Z,100167.03
2023-05-09T15:04:12.672Z,100167.63
2023-05-09T15:06:39.710Z,100155.13
2023-05-09T15:09:06.202Z,100165.25
2023-05-09T15:11:46.228Z,100167.28
2023-05-09T15:14:14.698Z,100155.84
2023-05-09T15:16:41.396Z,100155.03
2023-05-09T15:19:08.202Z,100152.00
2023-05-09T15:21:35.074Z,100159.31
2023-05-09T15:24:02.495Z,100157.44
2023-05-09T15:26:29.385Z,100162.75
2023-05-09T15:28:58.321Z,100151.09
2023-05-09T15:31:25.754Z,100167.63
2023-05-09T15:33:52.362Z,100162.03
2023-05-09T15:36:18.866Z,100162.63
2023-05-09T15:38:49.098Z,100166.59
2023-05-09T15:41:15.906Z,100170.19
2023-05-09T15:43:42.297Z,100178.47
2023-05-09T15:46:08.929Z,100179.59
2023-05-09T15:48:35.354Z,100165.63
2023-05-09T15:51:03.024Z,100159.78
2023-05-09T15:53:29.972Z,100162.31
2023-05-09T15:55:57.043Z,100165.41
2023-05-09T15:58:23.496Z,100167.06
2023-05-09T16:00:50.125Z,100170.97
2023-05-09T16:03:16.705Z,100172.16
2023-05-09T16:05:46.358Z,100163.53
2023-05-09T16:08:12.820Z,100161.00
2023-05-09T16:10:39.326Z,100160.47
2023-05-09T16:13:05.971Z,100161.66
2023-05-09T16:15:32.646Z,100161.09
2023-05-09T16:17:59.045Z,100159.72
2023-05-09T16:20:25.462Z,100160.00
2023-05-09T16:22:52.083Z,100160.31
2023-05-09T16:25:18.533Z,100151.09
2023-05-09T16:27:45.064Z,100143.56
2023-05-09T16:30:12.063Z,100146.34
2023-05-09T16:32:38.793Z,100148.84
2023-05-09T16:35:06.230Z,100139.38
2023-05-09T16:37:34.151Z,100139.69
2023-05-09T16:40:02.202Z,100142.19
2023-05-09T16:42:28.682Z,100140.50
2023-05-09T16:44:55.752Z,100140.50
2023-05-09T16:47:22.297Z,100138.84
2023-05-09T16:49:48.787Z,100141.63
2023-05-09T16:52:15.367Z,100148.34
2023-05-09T16:54:41.811Z,100143.31
2023-05-09T16:57:08.396Z,100140.91
2023-05-09T16:59:34.846Z,100147.63
2023-05-09T17:02:01.503Z,100150.72
2023-05-09T17:04:27.995Z,100147.97
2023-05-09T17:06:54.526Z,100152.16
2023-05-09T17:09:20.994Z,100151.34
2023-05-09T17:11:48.262Z,100140.75
2023-05-09T17:14:14.884Z,100148.03
2023-05-09T17:16:41.327Z,100146.66
2023-05-09T17:19:07.896Z,100134.09
2023-05-09T17:21:34.920Z,100136.34
2023-05-09T17:24:02.184Z,100146.91
2023-05-09T17:26:29.652Z,100139.09
2023-05-09T17:28:56.133Z,100127.66
2023-05-09T17:31:22.992Z,100124.59
2023-05-09T17:33:49.479Z,100125.19
2023-05-09T17:36:15.934Z,100124.63
2023-05-09T17:38:42.421Z,100124.66
2023-05-09T17:41:08.834Z,100124.38
2023-05-09T17:43:35.199Z,100124.09
2023-05-09T17:46:01.645Z,100119.94
2023-05-09T17:48:28.158Z,100115.78
2023-05-09T17:50:54.995Z,100108.53
2023-05-09T17:53:21.725Z,100122.78
2023-05-09T17:55:48.168Z,100116.38
2023-05-09T17:58:15.235Z,100106.38
2023-05-09T18:00:41.852Z,100115.88
2023-05-09T18:03:08.365Z,100107.78
2023-05-09T18:05:34.925Z,100108.03
2023-05-09T18:08:01.495Z,100107.50
2023-05-09T18:10:28.641Z,100113.66
2023-05-09T18:12:55.115Z,100103.66
2023-05-09T18:15:21.577Z,100107.56
2023-05-09T18:17:49.187Z,100109.81
2023-05-09T18:20:15.948Z,100109.50
2023-05-09T18:22:42.545Z,100101.16
2023-05-09T18:25:09.376Z,100098.09
2023-05-09T18:27:35.821Z,100098.09
2023-05-09T18:30:02.596Z,100103.66
2023-05-09T18:32:29.937Z,100101.41
2023-05-09T18:34:56.483Z,100104.19
2023-05-09T18:37:22.993Z,100101.41
2023-05-09T18:39:49.671Z,100096.97
2023-05-09T18:42:16.464Z,100094.19
2023-05-09T18:44:43.192Z,100097.84
2023-05-09T18:47:09.737Z,100094.81
2023-05-09T18:49:36.206Z,100085.88
2023-05-09T18:52:03.412Z,100085.34
2023-05-09T18:54:29.907Z,100097.59
2023-05-09T18:56:56.380Z,100098.16
2023-05-09T18:59:23.467Z,100094.84
2023-05-09T19:01:50.281Z,100091.22
2023-05-09T19:04:17.368Z,100090.38
2023-05-09T19:06:44.110Z,100093.44
2023-05-09T19:09:11.647Z,100091.22
2023-05-09T19:11:38.191Z,100094.28
2023-05-09T19:14:05.122Z,100089.84
2023-05-09T19:16:31.751Z,100082.03
2023-05-09T19:18:58.899Z,100080.38
2023-05-09T19:21:25.542Z,100090.94
2023-05-09T19:23:52.351Z,100082.03
2023-05-09T19:26:19.580Z,100094.28
2023-05-09T19:28:46.827Z,100100.41
2023-05-09T19:31:14.834Z,100092.06
2023-05-09T19:33:45.455Z,100097.06
2023-05-09T19:36:12.183Z,100097.66
2023-05-09T19:38:38.852Z,100092.63
2023-05-09T19:41:05.352Z,100091.81
2023-05-09T19:43:32.498Z,100094.59
2023-05-09T19:45:59.943Z,100091.50
2023-05-09T19:48:26.521Z,100100.69
2023-05-09T19:50:57.305Z,100099.56
2023-05-09T19:53:23.996Z,100107.09
2023-05-09T19:55:50.482Z,100114.88
2023-05-09T19:58:17.721Z,100119.31
2023-05-09T20:00:44.765Z,100120.44
2023-05-09T20:03:11.305Z,100122.66
2023-05-09T20:05:37.928Z,100126.25
2023-05-09T20:08:04.492Z,100124.31
2023-05-09T20:10:32.882Z,100119.84
2023-05-09T20:13:00.881Z,100132.63
2023-05-09T20:15:27.840Z,100128.19
2023-05-09T20:17:54.428Z,100127.63
2023-05-09T20:20:21.105Z,100130.97
2023-05-09T20:22:47.607Z,100122.88
2023-05-09T20:25:14.766Z,100128.16
2023-05-09T20:27:41.336Z,100135.13
2023-05-09T20:30:08.323Z,100125.38
2023-05-09T20:32:35.149Z,100125.09
2023-05-09T20:35:01.919Z,100135.38
2023-05-09T20:37:28.319Z,100127.31
2023-05-09T20:39:54.667Z,100128.69
2023-05-09T20:42:21.172Z,100126.47
2023-05-09T20:44:48.632Z,100128.66
2023-05-09T20:47:15.062Z,100131.16
2023-05-09T20:49:41.454Z,100122.78
2023-05-09T20:52:07.888Z,100128.06
2023-05-09T20:54:34.449Z,100133.34
2023-05-09T20:57:00.873Z,100125.25
2023-05-09T20:59:27.306Z,100130.81
2023-05-09T21:01:55.567Z,100133.50
2023-05-09T21:04:22.324Z,100130.16
2023-05-09T21:06:48.830Z,100130.13
2023-05-09T21:09:15.287Z,100134.56
2023-05-09T21:11:41.734Z,100134.00
2023-05-09T21:14:08.681Z,100138.97
2023-05-09T21:16:35.319Z,100133.13
2023-05-09T21:19:04.812Z,100137.53
2023-05-09T21:21:33.172Z,100130.03
2023-05-09T21:24:03.085Z,100143.34
2023-05-09T21:26:30.325Z,100143.34
2023-05-09T21:28:56.815Z,100139.47
2023-05-09T21:31:23.272Z,100148.34
2023-05-09T21:33:49.774Z,100147.84
2023-05-09T21:36:16.146Z,100141.44
2023-05-09T21:38:42.551Z,100147.25
2023-05-09T21:41:10.030Z,100145.88
2023-05-09T21:43:37.456Z,100148.03
2023-05-09T21:46:05.186Z,100148.88
2023-05-09T21:48:31.716Z,100145.53
2023-05-09T21:51:02.080Z,100139.41
2023-05-09T21:53:28.598Z,100148.84
2023-05-09T21:55:54.972Z,100142.19
2023-05-09T21:58:21.383Z,100148.28
2023-05-09T22:00:47.827Z,100145.53
2023-05-09T22:03:14.267Z,100152.16
2023-05-09T22:05:41.246Z,100153.81
2023-05-09T22:08:07.706Z,100157.44
2023-05-09T22:10:34.114Z,100153.56
2023-05-09T22:13:00.629Z,100163.25
2023-05-09T22:15:27.842Z,100159.91
2023-05-09T22:17:54.290Z,100160.44
2023-05-09T22:20:21.114Z,100164.84
2023-05-09T22:22:47.580Z,100169.00
2023-05-09T22:25:14.233Z,100172.88
2023-05-09T22:27:41.708Z,100173.41
2023-05-09T22:30:09.256Z,100171.44
2023-05-09T22:32:35.705Z,100174.50
2023-05-09T22:35:02.260Z,100169.75
2023-05-09T22:37:28.759Z,100171.97
2023-05-09T22:39:55.728Z,100171.97
2023-05-09T22:42:22.171Z,100172.81
2023-05-09T22:44:49.713Z,100170.28
2023-05-09T22:47:16.225Z,100168.63
2023-05-09T22:52:09.846Z,100167.50
2023-05-09T22:54:36.279Z,100170.25
2023-05-09T22:57:02.794Z,100169.44
2023-05-09T22:59:29.224Z,100173.03
2023-05-09T23:01:55.816Z,100176.91
2023-05-09T23:04:22.186Z,100175.22
2023-05-09T23:06:48.659Z,100175.50
2023-05-09T23:09:15.086Z,100177.44
2023-05-09T23:11:42.215Z,100175.75
2023-05-09T23:14:08.653Z,100166.88
2023-05-09T23:16:35.399Z,100177.97
2023-05-09T23:19:01.929Z,100172.94
2023-05-09T23:21:29.102Z,100169.06
2023-05-09T23:23:55.523Z,100174.06
2023-05-09T23:26:21.959Z,100172.38
2023-05-09T23:28:48.409Z,100175.41
2023-05-09T23:31:14.927Z,100161.53
2023-05-09T23:33:41.349Z,100170.13
2023-05-09T23:36:08.165Z,100171.78
2023-05-09T23:38:34.562Z,100171.78
2023-05-09T23:41:01.304Z,100175.94
2023-05-09T23:43:27.703Z,100180.09
2023-05-09T23:45:54.345Z,100176.72
2023-05-09T23:48:20.909Z,100177.84
2023-05-09T23:50:47.313Z,100177.25
2023-05-09T23:53:13.747Z,100173.31
2023-05-09T23:55:40.178Z,100174.41
2023-05-09T23:58:06.540Z,100181.31
